createdAt,value
2019-03-16T00:01:56.994Z,14.33
2019-03-16T00:04:18.800Z,11.00
2019-03-16T00:06:47.281Z,13.80
2019-03-16T00:09:15.242Z,11.83
2019-03-16T00:11:43.757Z,11.90
2019-03-16T00:14:12.068Z,14.00
2019-03-16T00:16:40.410Z,14.77
2019-03-16T00:19:08.802Z,13.10
2019-03-16T00:21:37.246Z,10.87
2019-03-16T00:24:05.508Z,11.27
2019-03-16T00:26:33.687Z,12.70
2019-03-16T00:29:01.945Z,9.47
2019-03-16T00:31:30.238Z,7.40
2019-03-16T00:33:59.952Z,10.20
2019-03-16T00:36:28.233Z,13.63
2019-03-16T00:38:56.297Z,9.07
2019-03-16T00:41:24.566Z,8.07
2019-03-16T00:43:52.802Z,9.40
2019-03-16T00:46:21.020Z,9.17
2019-03-16T00:48:49.418Z,9.70
2019-03-16T00:51:17.633Z,9.40
2019-03-16T00:53:45.842Z,9.90
2019-03-16T00:56:14.094Z,8.87
2019-03-16T00:58:42.368Z,11.47
2019-03-16T01:01:10.671Z,8.10
2019-03-16T01:03:39.048Z,8.40
2019-03-16T01:06:07.362Z,9.43
2019-03-16T01:08:35.631Z,10.63
2019-03-16T01:11:03.996Z,6.47
2019-03-16T01:13:32.411Z,7.33
2019-03-16T01:16:00.635Z,10.43
2019-03-16T01:18:29.011Z,11.00
2019-03-16T01:20:57.310Z,8.83
2019-03-16T01:23:25.681Z,8.50
2019-03-16T01:25:53.939Z,7.70
2019-03-16T01:28:22.183Z,10.93
2019-03-16T01:30:50.245Z,9.60
2019-03-16T01:33:18.730Z,10.60
2019-03-16T01:35:47.000Z,7.67
2019-03-16T01:38:15.246Z,9.57
2019-03-16T01:40:43.800Z,6.33
2019-03-16T01:43:12.143Z,10.77
2019-03-16T01:45:40.351Z,8.50
2019-03-16T01:48:08.627Z,8.47
2019-03-16T01:50:36.902Z,7.50
2019-03-16T01:53:05.107Z,10.83
2019-03-16T01:55:33.450Z,6.47
2019-03-16T01:58:01.598Z,11.10
2019-03-16T02:00:29.694Z,10.43
2019-03-16T02:02:57.866Z,8.40
2019-03-16T02:05:25.996Z,8.20
2019-03-16T02:07:54.229Z,10.13
2019-03-16T02:10:22.284Z,10.70
2019-03-16T02:12:50.625Z,10.27
2019-03-16T02:15:18.890Z,9.60
2019-03-16T02:17:46.873Z,8.50
2019-03-16T02:20:15.254Z,6.77
2019-03-16T02:22:43.571Z,9.40
2019-03-16T02:25:11.771Z,10.33
2019-03-16T02:27:40.196Z,6.83
2019-03-16T02:30:09.103Z,9.67
2019-03-16T02:32:37.485Z,11.60
2019-03-16T02:35:06.607Z,8.43
2019-03-16T02:37:34.751Z,8.33
2019-03-16T02:40:03.064Z,10.70
2019-03-16T02:42:31.358Z,10.43
2019-03-16T02:44:59.583Z,8.43
2019-03-16T02:47:27.767Z,9.20
2019-03-16T02:49:56.276Z,10.47
2019-03-16T02:52:24.523Z,13.90
2019-03-16T02:54:52.877Z,8.47
2019-03-16T02:57:21.221Z,8.63
2019-03-16T02:59:49.447Z,9.03
2019-03-16T03:02:17.471Z,9.00
2019-03-16T03:04:46.537Z,10.43
2019-03-16T03:07:15.081Z,9.80
2019-03-16T03:09:42.904Z,8.43
2019-03-16T03:12:11.317Z,8.43
2019-03-16T03:14:39.417Z,11.03
2019-03-16T03:17:07.692Z,10.87
2019-03-16T03:19:36.030Z,7.47
2019-03-16T03:22:04.430Z,6.13
2019-03-16T03:24:32.501Z,7.63
2019-03-16T03:27:00.790Z,9.77
2019-03-16T03:29:28.846Z,11.07
2019-03-16T03:31:57.142Z,10.93
2019-03-16T03:34:25.631Z,6.07
2019-03-16T03:36:53.875Z,9.67
2019-03-16T03:39:22.083Z,10.83
2019-03-16T03:41:50.465Z,7.00
2019-03-16T03:44:18.703Z,10.27
2019-03-16T03:46:46.875Z,9.87
2019-03-16T03:49:15.041Z,9.43
2019-03-16T03:51:43.109Z,11.17
2019-03-16T03:54:11.402Z,8.63
2019-03-16T03:56:39.731Z,10.43
2019-03-16T03:59:08.101Z,8.87
2019-03-16T04:01:36.538Z,7.63
2019-03-16T04:04:14.972Z,12.87
2019-03-16T04:06:34.865Z,9.80
2019-03-16T04:09:04.140Z,7.33
2019-03-16T04:11:32.350Z,8.10
2019-03-16T04:14:00.589Z,9.63
2019-03-16T04:16:28.964Z,8.73
2019-03-16T04:18:57.264Z,9.33
2019-03-16T04:21:25.498Z,7.40
2019-03-16T04:23:53.985Z,11.53
2019-03-16T04:26:22.321Z,12.27
2019-03-16T04:28:50.630Z,10.30
2019-03-16T04:31:18.844Z,8.10
2019-03-16T04:33:47.167Z,9.63
2019-03-16T04:36:15.402Z,12.57
2019-03-16T04:38:43.641Z,11.23
2019-03-16T04:41:12.051Z,7.43
2019-03-16T04:43:40.288Z,8.33
2019-03-16T04:46:08.609Z,8.93
2019-03-16T04:48:36.947Z,12.60
2019-03-16T04:51:05.215Z,10.73
2019-03-16T04:53:33.393Z,14.03
2019-03-16T04:56:01.850Z,9.37
2019-03-16T04:58:30.049Z,10.27
2019-03-16T05:00:58.338Z,12.33
2019-03-16T05:03:26.675Z,6.93
2019-03-16T05:06:13.953Z,8.00
2019-03-16T05:08:42.318Z,10.00
2019-03-16T05:11:10.586Z,6.07
2019-03-16T05:13:38.846Z,8.67
2019-03-16T05:16:07.117Z,9.67
2019-03-16T05:18:35.399Z,6.43
2019-03-16T05:21:03.580Z,8.93
2019-03-16T05:23:31.913Z,12.20
2019-03-16T05:26:00.139Z,12.30
2019-03-16T05:28:28.313Z,8.80
2019-03-16T05:30:56.734Z,10.63
2019-03-16T05:33:24.948Z,10.63
2019-03-16T05:35:53.124Z,8.60
2019-03-16T05:38:21.493Z,13.47
2019-03-16T05:40:49.625Z,9.73
2019-03-16T05:43:17.861Z,10.27
2019-03-16T05:45:46.185Z,9.60
2019-03-16T05:48:14.337Z,10.00
2019-03-16T05:50:42.470Z,10.53
2019-03-16T05:53:10.774Z,13.30
2019-03-16T05:55:39.025Z,10.17
2019-03-16T05:58:07.294Z,12.17
2019-03-16T06:00:35.557Z,12.63
2019-03-16T06:03:03.742Z,11.83
2019-03-16T06:05:32.036Z,12.67
2019-03-16T06:08:00.358Z,15.30
2019-03-16T06:10:28.795Z,13.10
2019-03-16T06:12:56.966Z,10.00
2019-03-16T06:15:25.296Z,12.93
2019-03-16T06:17:53.515Z,16.07
2019-03-16T06:20:21.571Z,11.87
2019-03-16T06:22:50.050Z,7.20
2019-03-16T06:25:18.119Z,11.97
2019-03-16T06:27:46.314Z,12.07
2019-03-16T06:30:15.146Z,16.37
2019-03-16T06:32:43.347Z,10.27
2019-03-16T06:35:24.015Z,10.63
2019-03-16T06:37:41.892Z,9.37
2019-03-16T06:40:10.793Z,18.87
2019-03-16T06:42:39.140Z,16.97
2019-03-16T06:45:07.572Z,15.63
2019-03-16T06:47:35.879Z,15.43
2019-03-16T06:50:05.184Z,14.30
2019-03-16T06:52:33.436Z,12.57
2019-03-16T06:55:01.627Z,11.10
2019-03-16T06:57:29.903Z,12.43
2019-03-16T06:59:58.429Z,11.67
2019-03-16T07:02:26.667Z,9.30
2019-03-16T07:04:54.836Z,11.83
2019-03-16T07:07:23.090Z,11.63
2019-03-16T07:09:51.284Z,15.37
2019-03-16T07:12:19.454Z,16.93
2019-03-16T07:14:47.692Z,18.50
2019-03-16T07:17:15.888Z,16.00
2019-03-16T07:19:44.170Z,16.33
2019-03-16T07:22:12.407Z,11.93
2019-03-16T07:24:40.521Z,7.90
2019-03-16T07:27:08.746Z,11.00
2019-03-16T07:29:37.057Z,10.67
2019-03-16T07:32:05.410Z,10.03
2019-03-16T07:34:33.422Z,11.50
2019-03-16T07:37:01.636Z,9.90
2019-03-16T07:39:29.988Z,10.93
2019-03-16T07:42:00.624Z,10.10
2019-03-16T07:44:28.258Z,11.07
2019-03-16T07:46:56.560Z,15.07
2019-03-16T07:49:24.767Z,19.12
2019-03-16T07:51:52.857Z,8.85
2019-03-16T07:54:21.067Z,7.83
2019-03-16T07:56:49.249Z,9.23
2019-03-16T07:59:18.595Z,8.48
2019-03-16T08:01:46.706Z,9.58
2019-03-16T08:04:14.847Z,8.85
2019-03-16T08:06:42.984Z,8.25
2019-03-16T08:09:11.588Z,7.80
2019-03-16T08:11:39.911Z,8.33
2019-03-16T08:14:08.191Z,10.87
2019-03-16T08:16:36.411Z,9.33
2019-03-16T08:19:05.035Z,11.53
2019-03-16T08:21:33.322Z,10.47
2019-03-16T08:24:01.532Z,8.87
2019-03-16T08:26:30.079Z,10.07
2019-03-16T08:28:59.295Z,8.07
2019-03-16T08:31:27.749Z,10.10
2019-03-16T08:33:56.031Z,8.67
2019-03-16T08:36:24.379Z,7.70
2019-03-16T08:38:52.584Z,10.90
2019-03-16T08:41:20.758Z,7.93
2019-03-16T08:43:48.998Z,10.90
2019-03-16T08:46:17.175Z,10.97
2019-03-16T08:48:45.281Z,10.23
2019-03-16T08:51:13.590Z,9.97
2019-03-16T08:53:41.722Z,11.20
2019-03-16T08:56:10.042Z,12.13
2019-03-16T08:58:37.934Z,8.97
2019-03-16T09:01:06.262Z,10.40
2019-03-16T09:03:43.520Z,12.30
2019-03-16T09:06:04.612Z,10.67
2019-03-16T09:08:32.880Z,9.70
2019-03-16T09:11:01.123Z,8.03
2019-03-16T09:13:29.432Z,10.37
2019-03-16T09:15:57.638Z,10.20
2019-03-16T09:18:25.930Z,7.17
2019-03-16T09:20:54.255Z,10.53
2019-03-16T09:23:22.364Z,9.67
2019-03-16T09:25:50.559Z,9.60
2019-03-16T09:28:19.214Z,7.97
2019-03-16T09:30:47.602Z,7.70
2019-03-16T09:33:15.872Z,7.33
2019-03-16T09:35:44.395Z,8.90
2019-03-16T09:38:12.549Z,8.17
2019-03-16T09:40:40.877Z,9.83
2019-03-16T09:43:09.156Z,10.23
2019-03-16T09:45:37.576Z,9.97
2019-03-16T09:48:05.941Z,9.30
2019-03-16T09:50:34.064Z,10.33
2019-03-16T09:53:02.288Z,10.17
2019-03-16T09:55:30.476Z,11.10
2019-03-16T09:57:58.879Z,11.27
2019-03-16T10:00:27.102Z,10.63
2019-03-16T10:02:55.299Z,9.90
2019-03-16T10:05:23.521Z,9.47
2019-03-16T10:07:51.497Z,10.47
2019-03-16T10:10:19.576Z,11.00
2019-03-16T10:12:47.890Z,9.70
2019-03-16T10:15:16.053Z,11.13
2019-03-16T10:17:44.261Z,10.43
2019-03-16T10:20:12.563Z,15.77
2019-03-16T10:22:40.895Z,9.37
2019-03-16T10:25:09.549Z,13.10
2019-03-16T10:27:37.897Z,11.10
2019-03-16T10:30:07.253Z,12.10
2019-03-16T10:32:37.770Z,11.03
2019-03-16T10:35:06.319Z,12.17
2019-03-16T10:37:34.542Z,8.03
2019-03-16T10:40:02.813Z,11.10
2019-03-16T10:42:31.228Z,12.60
2019-03-16T10:44:59.341Z,13.20
2019-03-16T10:47:27.627Z,9.93
2019-03-16T10:49:55.962Z,11.00
2019-03-16T10:52:24.062Z,13.22
2019-03-16T10:54:52.341Z,12.18
2019-03-16T10:57:20.579Z,12.30
2019-03-16T10:59:48.794Z,10.32
2019-03-16T11:02:16.974Z,21.20
2019-03-16T11:04:45.202Z,9.05
2019-03-16T11:07:13.413Z,10.75
2019-03-16T11:09:41.684Z,14.03
2019-03-16T11:12:10.031Z,12.05
2019-03-16T11:14:41.005Z,12.50
2019-03-16T11:17:08.078Z,10.55
2019-03-16T11:19:36.410Z,12.58
2019-03-16T11:22:04.602Z,10.78
2019-03-16T11:24:32.686Z,12.80
2019-03-16T11:27:00.535Z,10.30
2019-03-16T11:29:28.330Z,10.63
2019-03-16T11:31:56.175Z,10.10
2019-03-16T11:34:24.062Z,6.25
2019-03-16T11:36:52.329Z,7.62
2019-03-16T11:39:20.590Z,7.70
2019-03-16T11:41:48.759Z,9.00
2019-03-16T11:44:16.938Z,10.95
2019-03-16T11:46:45.137Z,7.33
2019-03-16T11:49:13.625Z,9.07
2019-03-16T11:51:41.903Z,9.60
2019-03-16T11:54:10.290Z,7.57
2019-03-16T11:56:38.579Z,8.50
2019-03-16T11:59:06.899Z,8.33
2019-03-16T12:01:35.282Z,7.57
2019-03-16T12:04:03.547Z,15.77
2019-03-16T12:06:31.820Z,8.00
2019-03-16T12:08:59.992Z,9.07
2019-03-16T12:11:28.287Z,6.83
2019-03-16T12:13:56.553Z,10.13
2019-03-16T12:16:24.397Z,8.70
2019-03-16T12:18:52.631Z,8.30
2019-03-16T12:21:20.850Z,9.23
2019-03-16T12:23:49.090Z,8.50
2019-03-16T12:26:36.424Z,8.57
2019-03-16T12:29:04.852Z,9.63
2019-03-16T12:31:33.122Z,7.77
2019-03-16T12:34:01.518Z,12.77
2019-03-16T12:36:29.776Z,7.53
2019-03-16T12:38:57.963Z,9.30
2019-03-16T12:41:26.118Z,10.40
2019-03-16T12:43:54.296Z,7.73
2019-03-16T12:46:22.285Z,6.20
2019-03-16T12:48:50.606Z,7.20
2019-03-16T12:51:18.702Z,11.07
2019-03-16T12:53:46.987Z,6.30
2019-03-16T12:56:15.247Z,7.57
2019-03-16T12:58:43.438Z,6.50
2019-03-16T13:01:12.664Z,8.60
2019-03-16T13:03:41.286Z,8.63
2019-03-16T13:06:09.609Z,11.67
2019-03-16T13:08:37.982Z,8.33
2019-03-16T13:11:06.602Z,9.43
2019-03-16T13:13:34.648Z,11.40
2019-03-16T13:16:03.014Z,10.23
2019-03-16T13:18:31.363Z,8.97
2019-03-16T13:20:59.673Z,10.57
2019-03-16T13:23:27.821Z,8.77
2019-03-16T13:25:55.970Z,8.63
2019-03-16T13:28:24.238Z,11.73
2019-03-16T13:30:52.455Z,9.27
2019-03-16T13:33:20.804Z,8.27
2019-03-16T13:35:49.123Z,8.87
2019-03-16T13:38:17.387Z,14.70
2019-03-16T13:40:45.654Z,11.70
2019-03-16T13:43:14.039Z,9.17
2019-03-16T13:45:42.231Z,9.93
2019-03-16T13:48:10.479Z,8.70
2019-03-16T13:50:38.789Z,10.73
2019-03-16T13:53:07.243Z,12.70
2019-03-16T13:55:35.582Z,9.37
2019-03-16T13:58:03.781Z,9.13
2019-03-16T14:00:31.966Z,10.50
2019-03-16T14:03:00.511Z,7.03
2019-03-16T14:05:28.550Z,6.77
2019-03-16T14:07:56.796Z,8.13
2019-03-16T14:10:25.325Z,8.07
2019-03-16T14:12:53.462Z,9.90
2019-03-16T14:15:21.729Z,10.47
2019-03-16T14:17:49.964Z,8.73
2019-03-16T14:20:18.483Z,9.67
2019-03-16T14:22:46.643Z,10.23
2019-03-16T14:25:15.005Z,11.67
2019-03-16T14:27:43.227Z,9.73
2019-03-16T14:30:23.940Z,8.20
2019-03-16T14:32:42.277Z,10.73
2019-03-16T14:35:10.523Z,10.80
2019-03-16T14:37:38.984Z,9.03
2019-03-16T14:40:07.788Z,10.50
2019-03-16T14:42:36.171Z,7.37
2019-03-16T14:45:05.122Z,8.53
2019-03-16T14:47:33.469Z,8.40
2019-03-16T14:50:01.683Z,9.97
2019-03-16T14:52:29.968Z,8.43
2019-03-16T14:54:58.602Z,10.27
2019-03-16T14:57:26.753Z,7.67
2019-03-16T14:59:54.985Z,9.70
2019-03-16T15:02:23.232Z,8.13
2019-03-16T15:04:51.436Z,8.43
2019-03-16T15:07:19.508Z,12.50
2019-03-16T15:09:47.736Z,10.03
2019-03-16T15:12:16.226Z,9.87
2019-03-16T15:14:44.551Z,8.60
2019-03-16T15:17:12.951Z,8.13
2019-03-16T15:19:41.088Z,9.03
2019-03-16T15:22:12.004Z,10.00
2019-03-16T15:24:39.459Z,12.43
2019-03-16T15:27:07.875Z,7.97
2019-03-16T15:29:36.023Z,10.17
2019-03-16T15:32:04.367Z,10.53
2019-03-16T15:34:32.583Z,11.53
2019-03-16T15:37:00.860Z,11.97
2019-03-16T15:39:29.050Z,10.07
2019-03-16T15:41:57.311Z,10.20
2019-03-16T15:44:25.690Z,10.50
2019-03-16T15:46:54.080Z,10.43
2019-03-16T15:49:22.293Z,10.30
2019-03-16T15:51:50.632Z,11.00
2019-03-16T15:54:18.963Z,9.60
2019-03-16T15:56:46.967Z,10.93
2019-03-16T15:59:15.072Z,8.67
2019-03-16T16:01:44.323Z,10.57
2019-03-16T16:04:12.529Z,11.80
2019-03-16T16:06:40.890Z,10.53
2019-03-16T16:09:09.231Z,10.93
2019-03-16T16:11:37.630Z,11.77
2019-03-16T16:14:05.942Z,11.53
2019-03-16T16:16:34.331Z,13.03
2019-03-16T16:19:02.565Z,13.67
2019-03-16T16:21:30.743Z,12.90
2019-03-16T16:23:58.986Z,10.17
2019-03-16T16:26:27.190Z,14.67
2019-03-16T16:28:55.467Z,17.60
2019-03-16T16:31:23.710Z,13.90
2019-03-16T16:33:52.156Z,15.20
2019-03-16T16:36:20.314Z,16.40
2019-03-16T16:38:48.631Z,15.60
2019-03-16T16:41:16.937Z,15.77
2019-03-16T16:43:44.904Z,14.93
2019-03-16T16:46:12.973Z,12.67
2019-03-16T16:48:41.368Z,17.20
2019-03-16T16:51:09.630Z,15.73
2019-03-16T16:53:37.995Z,17.00
2019-03-16T16:56:06.017Z,17.00
2019-03-16T16:58:34.288Z,21.17
2019-03-16T17:01:02.117Z,13.70
2019-03-16T17:03:30.206Z,12.73
2019-03-16T17:05:58.678Z,12.40
2019-03-16T17:08:27.228Z,15.93
2019-03-16T17:10:55.439Z,15.73
2019-03-16T17:13:23.634Z,16.87
2019-03-16T17:15:51.814Z,13.10
2019-03-16T17:18:20.062Z,20.30
2019-03-16T17:20:48.261Z,19.60
2019-03-16T17:23:16.589Z,18.33
2019-03-16T17:25:44.799Z,19.37
2019-03-16T17:28:12.843Z,22.87
2019-03-16T17:30:41.218Z,20.20
2019-03-16T17:33:09.398Z,17.23
2019-03-16T17:35:38.058Z,16.03
2019-03-16T17:38:06.365Z,13.00
2019-03-16T17:40:36.663Z,13.47
2019-03-16T17:43:04.997Z,18.27
2019-03-16T17:45:33.300Z,9.17
2019-03-16T17:48:01.418Z,13.70
2019-03-16T17:50:29.383Z,12.40
2019-03-16T17:52:57.734Z,14.20
2019-03-16T17:55:25.831Z,17.63
2019-03-16T17:57:53.949Z,16.07
2019-03-16T18:00:22.199Z,14.90
2019-03-16T18:02:52.357Z,12.17
2019-03-16T18:05:20.615Z,11.37
2019-03-16T18:07:49.098Z,13.87
2019-03-16T18:10:17.334Z,9.93
2019-03-16T18:12:45.544Z,9.23
2019-03-16T18:15:13.997Z,12.43
2019-03-16T18:17:42.378Z,12.23
2019-03-16T18:20:10.819Z,12.87
2019-03-16T18:22:39.077Z,14.33
2019-03-16T18:25:08.335Z,11.20
2019-03-16T18:27:36.513Z,13.93
2019-03-16T18:30:05.243Z,12.70
2019-03-16T18:32:33.449Z,12.73
2019-03-16T18:35:01.785Z,14.90
2019-03-16T18:37:30.052Z,11.47
2019-03-16T18:39:58.298Z,14.27
2019-03-16T18:42:28.191Z,10.70
2019-03-16T18:44:56.546Z,9.27
2019-03-16T18:47:24.572Z,11.70
2019-03-16T18:49:52.798Z,17.20
2019-03-16T18:52:20.869Z,18.00
2019-03-16T18:54:49.054Z,10.87
2019-03-16T18:57:17.217Z,14.30
2019-03-16T18:59:45.481Z,15.27
2019-03-16T19:02:20.648Z,10.97
2019-03-16T19:04:43.322Z,15.77
2019-03-16T19:07:11.202Z,13.27
2019-03-16T19:09:39.014Z,12.37
2019-03-16T19:12:07.296Z,12.77
2019-03-16T19:14:35.645Z,12.77
2019-03-16T19:17:03.862Z,14.53
2019-03-16T19:19:32.190Z,10.57
2019-03-16T19:22:19.560Z,11.80
2019-03-16T19:24:47.887Z,14.93
2019-03-16T19:27:18.979Z,16.17
2019-03-16T19:29:46.255Z,13.83
2019-03-16T19:32:17.031Z,13.87
2019-03-16T19:34:44.506Z,16.17
2019-03-16T19:37:12.751Z,14.63
2019-03-16T19:39:40.959Z,16.37
2019-03-16T19:42:09.015Z,16.33
2019-03-16T19:44:37.491Z,16.33
2019-03-16T19:47:05.729Z,11.70
2019-03-16T19:49:33.851Z,10.07
2019-03-16T19:52:02.204Z,12.50
2019-03-16T19:54:30.546Z,9.60
2019-03-16T19:56:58.799Z,10.30
2019-03-16T19:59:27.275Z,11.73
2019-03-16T20:01:55.434Z,11.90
2019-03-16T20:04:35.448Z,11.30
2019-03-16T20:06:54.105Z,9.80
2019-03-16T20:09:24.501Z,10.27
2019-03-16T20:11:52.539Z,12.20
2019-03-16T20:14:20.843Z,12.00
2019-03-16T20:16:49.096Z,13.33
2019-03-16T20:19:17.379Z,16.30
2019-03-16T20:21:45.691Z,21.27
2019-03-16T20:24:13.913Z,18.97
2019-03-16T20:26:42.118Z,16.13
2019-03-16T20:29:10.543Z,17.00
2019-03-16T20:31:46.813Z,15.23
2019-03-16T20:34:08.433Z,15.70
2019-03-16T20:36:36.682Z,26.17
2019-03-16T20:39:07.163Z,22.90
2019-03-16T20:41:36.619Z,21.23
2019-03-16T20:44:05.187Z,24.07
2019-03-16T20:46:33.505Z,22.33
2019-03-16T20:49:01.683Z,14.17
2019-03-16T20:51:30.045Z,17.30
2019-03-16T20:53:58.241Z,13.30
2019-03-16T20:56:26.303Z,11.60
2019-03-16T20:58:54.407Z,14.63
2019-03-16T21:01:22.820Z,14.73
2019-03-16T21:03:51.148Z,14.23
2019-03-16T21:06:19.258Z,17.53
2019-03-16T21:08:47.594Z,17.90
2019-03-16T21:11:15.955Z,14.73
2019-03-16T21:13:44.274Z,19.50
2019-03-16T21:16:12.527Z,18.67
2019-03-16T21:18:41.022Z,15.60
2019-03-16T21:21:09.165Z,15.33
2019-03-16T21:23:37.432Z,19.67
2019-03-16T21:26:05.700Z,17.30
2019-03-16T21:28:33.979Z,18.60
2019-03-16T21:31:02.151Z,14.43
2019-03-16T21:33:30.325Z,20.33
2019-03-16T21:35:58.561Z,19.87
2019-03-16T21:38:26.684Z,19.20
2019-03-16T21:40:54.854Z,17.03
2019-03-16T21:43:24.228Z,18.27
2019-03-16T21:45:52.614Z,15.80
2019-03-16T21:48:20.805Z,17.80
2019-03-16T21:50:49.456Z,16.77
2019-03-16T21:53:17.520Z,17.80
2019-03-16T21:55:45.635Z,23.23
2019-03-16T21:58:14.170Z,18.77
2019-03-16T22:00:42.509Z,25.27
2019-03-16T22:03:10.829Z,17.30
2019-03-16T22:05:39.113Z,22.07
2019-03-16T22:08:07.322Z,14.90
2019-03-16T22:10:35.519Z,16.90
2019-03-16T22:13:03.967Z,13.30
2019-03-16T22:15:32.246Z,10.33
2019-03-16T22:18:00.494Z,16.80
2019-03-16T22:20:28.943Z,12.43
2019-03-16T22:22:57.184Z,14.27
2019-03-16T22:25:25.352Z,11.47
2019-03-16T22:27:53.587Z,10.87
2019-03-16T22:30:21.724Z,10.00
2019-03-16T22:32:50.182Z,8.23
2019-03-16T22:35:18.525Z,11.40
2019-03-16T22:37:46.739Z,9.30
2019-03-16T22:40:14.925Z,8.17
2019-03-16T22:42:43.239Z,10.10
2019-03-16T22:45:11.555Z,12.20
2019-03-16T22:47:39.725Z,14.97
2019-03-16T22:50:08.486Z,14.77
2019-03-16T22:52:36.610Z,12.00
2019-03-16T22:55:05.170Z,13.37
2019-03-16T22:57:33.527Z,10.73
2019-03-16T23:00:01.740Z,8.73
2019-03-16T23:02:30.017Z,11.33
2019-03-16T23:04:58.239Z,13.43
2019-03-16T23:07:26.362Z,10.00
2019-03-16T23:09:54.726Z,10.63
2019-03-16T23:12:22.896Z,9.07
2019-03-16T23:14:51.059Z,7.80
2019-03-16T23:17:19.295Z,8.50
2019-03-16T23:19:47.624Z,8.57
2019-03-16T23:22:15.891Z,11.00
2019-03-16T23:24:44.237Z,7.37
2019-03-16T23:27:12.292Z,9.37
2019-03-16T23:29:40.404Z,9.13
2019-03-16T23:32:08.605Z,9.73
2019-03-16T23:34:36.959Z,12.10
2019-03-16T23:37:05.291Z,9.63
2019-03-16T23:39:33.553Z,11.03
2019-03-16T23:42:01.894Z,8.23
2019-03-16T23:44:30.190Z,9.30
2019-03-16T23:46:58.687Z,9.53
2019-03-16T23:49:27.115Z,7.17
2019-03-16T23:51:57.062Z,6.67
2019-03-16T23:54:25.388Z,9.80
2019-03-16T23:56:53.689Z,10.57
2019-03-16T23:59:21.861Z,10.57
